createdAt,value
2022-12-20T00:00:10.036Z,97165.44
2022-12-20T00:02:39.870Z,97178.66
2022-12-20T00:05:21.068Z,97187.97
2022-12-20T00:07:49.678Z,97194.44
2022-12-20T00:10:21.867Z,97202.72
2022-12-20T00:12:53.947Z,97199.47
2022-12-20T00:15:27.161Z,97205.28
2022-12-20T00:18:01.224Z,97189.09
2022-12-20T00:20:30.263Z,97208.38
2022-12-20T00:22:59.996Z,97199.75
2022-12-20T00:25:33.321Z,97204.66
2022-12-20T00:28:05.446Z,97195.22
2022-12-20T00:30:37.066Z,97202.66
2022-12-20T00:33:07.063Z,97213.16
2022-12-20T00:35:35.272Z,97215.19
2022-12-20T00:38:04.977Z,97226.31
2022-12-20T00:40:36.512Z,97223.00
2022-12-20T00:43:04.728Z,97233.50
2022-12-20T00:45:38.084Z,97233.44
2022-12-20T00:48:12.637Z,97230.94
2022-12-20T00:50:41.952Z,97226.66
2022-12-20T00:53:10.939Z,97232.63
2022-12-20T00:55:43.085Z,97246.03
2022-12-20T00:58:11.566Z,97247.09
2022-12-20T01:00:40.472Z,97249.03
2022-12-20T01:03:09.033Z,97253.53
2022-12-20T01:05:36.825Z,97271.91
2022-12-20T01:08:05.081Z,97269.56
2022-12-20T01:10:32.955Z,97272.91
2022-12-20T01:13:00.607Z,97275.25
2022-12-20T01:15:29.139Z,97279.38
2022-12-20T01:17:58.207Z,97287.53
2022-12-20T01:20:25.691Z,97280.78
2022-12-20T01:22:53.285Z,97300.09
2022-12-20T01:25:20.946Z,97284.13
2022-12-20T01:27:48.484Z,97282.00
2022-12-20T01:30:54.758Z,97297.91
2022-12-20T01:33:45.988Z,97270.44
2022-12-20T01:37:04.062Z,97258.91
2022-12-20T01:40:13.335Z,97249.88
2022-12-20T01:42:40.970Z,97291.41
2022-12-20T01:45:13.771Z,97259.09
2022-12-20T01:47:41.576Z,97299.28
2022-12-20T01:50:09.695Z,97304.56
2022-12-20T01:52:43.809Z,97314.72
2022-12-20T01:55:17.261Z,97299.78
2022-12-20T01:58:13.647Z,97303.69
2022-12-20T02:00:41.279Z,97307.72
2022-12-20T02:03:12.423Z,97303.31
2022-12-20T02:05:45.459Z,97313.47
2022-12-20T02:08:16.505Z,97303.75
2022-12-20T02:10:51.565Z,97320.38
2022-12-20T02:13:54.480Z,97314.53
2022-12-20T02:16:28.102Z,97321.72
2022-12-20T02:20:01.287Z,97337.22
2022-12-20T02:23:09.014Z,97336.56
2022-12-20T02:25:55.105Z,97323.75
2022-12-20T02:28:28.724Z,97325.09
2022-12-20T02:31:03.560Z,97332.72
2022-12-20T02:33:31.562Z,97337.28
2022-12-20T02:36:00.030Z,97333.13
2022-12-20T02:38:35.240Z,97322.34
2022-12-20T02:41:26.348Z,97338.84
2022-12-20T02:44:19.245Z,97338.69
2022-12-20T02:46:49.736Z,97337.66
2022-12-20T02:49:20.161Z,97335.69
2022-12-20T02:51:49.827Z,97335.78
2022-12-20T02:54:18.425Z,97332.13
2022-12-20T02:57:08.125Z,97316.75
2022-12-20T02:59:56.257Z,97326.41
2022-12-20T03:02:26.307Z,97336.13
2022-12-20T03:04:55.772Z,97323.09
2022-12-20T03:07:23.639Z,97334.66
2022-12-20T03:09:51.529Z,97336.53
2022-12-20T03:12:19.141Z,97346.28
2022-12-20T03:14:46.699Z,97339.72
2022-12-20T03:17:15.329Z,97338.38
2022-12-20T03:19:43.184Z,97339.16
2022-12-20T03:22:11.382Z,97355.94
2022-12-20T03:24:39.062Z,97351.78
2022-12-20T03:27:12.339Z,97344.03
2022-12-20T03:29:40.031Z,97363.94
2022-12-20T03:32:08.447Z,97356.75
2022-12-20T03:34:36.075Z,97360.41
2022-12-20T03:37:04.365Z,97365.47
2022-12-20T03:39:32.209Z,97357.31
2022-12-20T03:42:00.778Z,97354.31
2022-12-20T03:44:28.389Z,97361.94
2022-12-20T03:46:56.316Z,97356.59
2022-12-20T03:49:24.003Z,97363.72
2022-12-20T03:51:52.554Z,97359.19
2022-12-20T03:54:20.537Z,97354.94
2022-12-20T03:57:04.179Z,97358.59
2022-12-20T03:59:32.426Z,97364.06
2022-12-20T04:02:01.918Z,97369.56
2022-12-20T04:04:30.611Z,97380.75
2022-12-20T04:06:58.135Z,97366.50
2022-12-20T04:09:26.205Z,97381.47
2022-12-20T04:11:59.177Z,97379.31
2022-12-20T04:14:28.014Z,97386.91
2022-12-20T04:16:55.892Z,97391.09
2022-12-20T04:19:24.296Z,97389.34
2022-12-20T04:21:51.900Z,97376.63
2022-12-20T04:24:21.065Z,97385.44
2022-12-20T04:27:06.892Z,97374.91
2022-12-20T04:29:35.072Z,97372.19
2022-12-20T04:32:04.065Z,97382.97
2022-12-20T04:34:31.738Z,97380.66
2022-12-20T04:36:59.951Z,97388.34
2022-12-20T04:39:38.727Z,97395.66
2022-12-20T04:42:35.241Z,97378.53
2022-12-20T04:45:04.581Z,97395.38
2022-12-20T04:47:32.246Z,97405.34
2022-12-20T04:50:00.250Z,97396.16
2022-12-20T04:52:48.275Z,97408.50
2022-12-20T04:55:17.222Z,97401.94
2022-12-20T04:57:45.664Z,97398.13
2022-12-20T05:00:15.733Z,97418.97
2022-12-20T05:02:46.687Z,97381.03
2022-12-20T05:05:17.660Z,97383.66
2022-12-20T05:10:37.520Z,97397.56
2022-12-20T05:13:09.234Z,97392.44
2022-12-20T05:15:43.863Z,97374.97
2022-12-20T05:18:12.436Z,97394.09
2022-12-20T05:21:16.203Z,97397.81
2022-12-20T05:24:04.950Z,97391.00
2022-12-20T05:26:38.850Z,97413.72
2022-12-20T05:29:06.496Z,97408.06
2022-12-20T05:31:35.101Z,97406.94
2022-12-20T05:34:03.628Z,97417.00
2022-12-20T05:36:35.352Z,97416.47
2022-12-20T05:39:06.405Z,97421.25
2022-12-20T05:41:37.693Z,97415.69
2022-12-20T05:44:08.327Z,97416.84
2022-12-20T05:46:38.899Z,97427.34
2022-12-20T05:49:11.888Z,97424.22
2022-12-20T05:51:39.587Z,97421.41
2022-12-20T05:54:26.422Z,97421.53
2022-12-20T05:57:03.384Z,97438.47
2022-12-20T05:59:35.866Z,97440.25
2022-12-20T06:02:06.498Z,97432.44
2022-12-20T06:04:35.797Z,97436.13
2022-12-20T06:07:11.163Z,97442.28
2022-12-20T06:09:39.336Z,97443.25
2022-12-20T06:12:12.021Z,97453.91
2022-12-20T06:14:40.639Z,97448.63
2022-12-20T06:17:08.362Z,97458.09
2022-12-20T06:19:36.480Z,97461.09
2022-12-20T06:22:04.335Z,97453.63
2022-12-20T06:24:51.147Z,97461.00
2022-12-20T06:27:23.727Z,97462.31
2022-12-20T06:30:14.791Z,97447.31
2022-12-20T06:33:05.100Z,97459.69
2022-12-20T06:35:33.270Z,97456.72
2022-12-20T06:38:01.306Z,97422.59
2022-12-20T06:40:32.695Z,97461.66
2022-12-20T06:43:02.177Z,97459.41
2022-12-20T06:45:31.729Z,97441.94
2022-12-20T06:48:02.470Z,97461.53
2022-12-20T06:50:33.684Z,97448.28
2022-12-20T06:53:01.559Z,97453.66
2022-12-20T06:55:29.443Z,97461.63
2022-12-20T06:57:57.271Z,97480.25
2022-12-20T07:00:26.524Z,97451.06
2022-12-20T07:02:55.211Z,97482.06
2022-12-20T07:05:41.983Z,97460.69
2022-12-20T07:08:10.144Z,97465.59
2022-12-20T07:10:57.237Z,97463.47
2022-12-20T07:13:24.996Z,97478.06
2022-12-20T07:15:59.739Z,97489.00
2022-12-20T07:18:27.593Z,97470.88
2022-12-20T07:20:55.567Z,97496.81
2022-12-20T07:23:23.176Z,97484.59
2022-12-20T07:25:58.583Z,97494.41
2022-12-20T07:28:27.740Z,97512.19
2022-12-20T07:30:55.629Z,97511.00
2022-12-20T07:33:23.335Z,97501.41
2022-12-20T07:35:54.495Z,97502.81
2022-12-20T07:38:22.819Z,97513.31
2022-12-20T07:40:50.895Z,97488.00
2022-12-20T07:43:18.742Z,97486.75
2022-12-20T07:45:47.830Z,97501.97
2022-12-20T07:48:19.724Z,97514.13
2022-12-20T07:50:49.394Z,97507.84
2022-12-20T07:53:18.342Z,97500.88
2022-12-20T07:55:46.600Z,97510.16
2022-12-20T07:58:15.766Z,97475.25
2022-12-20T08:00:44.416Z,97504.44
2022-12-20T08:03:21.461Z,97516.44
2022-12-20T08:05:55.909Z,97506.56
2022-12-20T08:08:24.511Z,97506.25
2022-12-20T08:10:52.782Z,97493.75
2022-12-20T08:13:20.565Z,97504.16
2022-12-20T08:15:48.407Z,97514.44
2022-12-20T08:18:16.636Z,97490.00
2022-12-20T08:20:44.566Z,97509.03
2022-12-20T08:23:12.231Z,97497.38
2022-12-20T08:25:42.035Z,97506.28
2022-12-20T08:28:10.399Z,97516.56
2022-12-20T08:30:38.405Z,97487.38
2022-12-20T08:33:06.567Z,97506.50
2022-12-20T08:35:34.361Z,97516.66
2022-12-20T08:38:02.053Z,97501.50
2022-12-20T08:40:29.869Z,97506.41
2022-12-20T08:42:59.883Z,97523.53
2022-12-20T08:45:29.518Z,97528.38
2022-12-20T08:47:57.303Z,97536.09
2022-12-20T08:50:27.328Z,97512.75
2022-12-20T08:52:54.905Z,97525.47
2022-12-20T08:55:27.737Z,97523.09
2022-12-20T08:57:57.280Z,97513.69
2022-12-20T09:00:25.011Z,97525.94
2022-12-20T09:02:55.365Z,97524.19
2022-12-20T09:05:23.346Z,97536.28
2022-12-20T09:07:51.021Z,97514.53
2022-12-20T09:10:18.830Z,97539.25
2022-12-20T09:12:46.610Z,97540.41
2022-12-20T09:15:14.626Z,97521.72
2022-12-20T09:17:42.423Z,97533.66
2022-12-20T09:20:10.511Z,97530.00
2022-12-20T09:22:38.198Z,97541.94
2022-12-20T09:25:07.458Z,97552.28
2022-12-20T09:27:35.305Z,97530.53
2022-12-20T09:30:03.060Z,97541.38
2022-12-20T09:32:31.818Z,97547.41
2022-12-20T09:34:59.349Z,97553.16
2022-12-20T09:37:27.088Z,97555.50
2022-12-20T09:39:54.765Z,97560.78
2022-12-20T09:42:27.280Z,97568.97
2022-12-20T09:45:06.883Z,97532.44
2022-12-20T09:47:38.127Z,97565.81
2022-12-20T09:50:07.898Z,97589.09
2022-12-20T09:52:40.613Z,97575.22
2022-12-20T09:55:18.067Z,97566.81
2022-12-20T09:58:10.439Z,97587.13
2022-12-20T10:00:53.516Z,97590.03
2022-12-20T10:03:32.098Z,97584.09
2022-12-20T10:06:09.414Z,97577.00
2022-12-20T10:09:12.561Z,97591.72
2022-12-20T10:12:02.009Z,97589.31
2022-12-20T10:14:44.962Z,97587.69
2022-12-20T10:17:44.614Z,97590.53
2022-12-20T10:20:12.121Z,97590.41
2022-12-20T10:22:53.229Z,97574.34
2022-12-20T10:25:30.582Z,97584.84
2022-12-20T10:28:01.028Z,97593.56
2022-12-20T10:30:30.427Z,97573.31
2022-12-20T10:32:59.212Z,97600.16
2022-12-20T10:35:31.602Z,97575.72
2022-12-20T10:38:07.565Z,97562.56
2022-12-20T10:41:10.628Z,97571.00
2022-12-20T10:43:28.862Z,97591.25
2022-12-20T10:46:01.281Z,97573.09
2022-12-20T10:48:33.562Z,97579.91
2022-12-20T10:51:16.081Z,97582.81
2022-12-20T10:54:01.501Z,97578.06
2022-12-20T10:56:38.951Z,97578.59
2022-12-20T10:59:18.737Z,97583.31
2022-12-20T11:01:48.445Z,97570.72
2022-12-20T11:04:36.962Z,97587.06
2022-12-20T11:07:24.953Z,97580.69
2022-12-20T11:09:56.772Z,97573.88
2022-12-20T11:12:24.597Z,97569.16
2022-12-20T11:15:08.883Z,97560.72
2022-12-20T11:17:49.154Z,97536.53
2022-12-20T11:20:26.911Z,97558.88
2022-12-20T11:23:32.861Z,97548.31
2022-12-20T11:26:30.567Z,97529.16
2022-12-20T11:29:39.561Z,97566.75
2022-12-20T11:32:16.873Z,97564.38
2022-12-20T11:35:11.517Z,97566.53
2022-12-20T11:38:08.976Z,97566.53
2022-12-20T11:40:50.614Z,97559.69
2022-12-20T11:44:15.327Z,97565.22
2022-12-20T11:46:49.046Z,97574.94
2022-12-20T11:49:26.547Z,97567.84
2022-12-20T11:52:01.529Z,97573.91
2022-12-20T11:55:08.245Z,97560.75
2022-12-20T12:00:53.864Z,97566.31
2022-12-20T12:03:28.601Z,97565.25
2022-12-20T12:06:07.131Z,97576.28
2022-12-20T12:08:50.455Z,97573.13
2022-12-20T12:12:04.061Z,97565.25
2022-12-20T12:14:31.667Z,97567.34
2022-12-20T12:17:08.448Z,97554.72
2022-12-20T12:19:41.465Z,97567.09
2022-12-20T12:22:17.872Z,97572.84
2022-12-20T12:24:52.953Z,97563.16
2022-12-20T12:27:27.014Z,97575.25
2022-12-20T12:29:58.328Z,97567.59
2022-12-20T12:32:44.153Z,97581.03
2022-12-20T12:35:39.824Z,97582.31
2022-12-20T12:38:29.215Z,97578.13
2022-12-20T12:41:15.859Z,97567.59
2022-12-20T12:43:48.508Z,97582.31
2022-12-20T12:46:27.788Z,97556.31
2022-12-20T12:49:05.536Z,97576.81
2022-12-20T12:51:39.992Z,97582.59
2022-12-20T12:54:10.574Z,97572.34
2022-12-20T12:56:46.416Z,97571.56
2022-12-20T12:59:20.399Z,97571.00
2022-12-20T13:02:14.568Z,97570.50
2022-12-20T13:05:01.934Z,97570.22
2022-12-20T13:07:33.726Z,97567.59
2022-12-20T13:10:29.861Z,97559.19
2022-12-20T13:13:02.261Z,97559.44
2022-12-20T13:15:32.849Z,97562.59
2022-12-20T13:18:18.101Z,97554.97
2022-12-20T13:21:20.575Z,97560.44
2022-12-20T13:23:48.397Z,97554.91
2022-12-20T13:26:52.203Z,97555.69
2022-12-20T13:29:28.432Z,97547.28
2022-12-20T13:31:56.470Z,97552.81
2022-12-20T13:34:54.960Z,97540.66
2022-12-20T13:37:54.825Z,97547.50
2022-12-20T13:41:10.992Z,97551.72
2022-12-20T13:43:45.109Z,97557.00
2022-12-20T13:46:21.917Z,97549.38
2022-12-20T13:49:03.945Z,97559.56
2022-12-20T13:51:38.379Z,97537.47
2022-12-20T13:54:25.202Z,97541.41
2022-12-20T13:57:09.059Z,97533.06
2022-12-20T13:59:37.167Z,97544.94
2022-12-20T14:02:18.469Z,97523.91
2022-12-20T14:05:04.583Z,97545.50
2022-12-20T14:07:34.895Z,97536.56
2022-12-20T14:10:26.483Z,97544.41
2022-12-20T14:12:55.139Z,97549.13
2022-12-20T14:15:34.651Z,97551.22
2022-12-20T14:18:15.915Z,97554.63
2022-12-20T14:20:44.191Z,97535.16
2022-12-20T14:23:16.713Z,97540.69
2022-12-20T14:25:51.298Z,97535.66
2022-12-20T14:28:31.940Z,97546.09
2022-12-20T14:31:06.508Z,97545.38
2022-12-20T14:33:38.703Z,97549.50
2022-12-20T14:36:20.271Z,97541.88
2022-12-20T14:38:50.880Z,97537.44
2022-12-20T14:41:40.609Z,97522.38
2022-12-20T14:44:08.202Z,97542.88
2022-12-20T14:46:36.422Z,97534.41
2022-12-20T14:49:25.348Z,97539.31
2022-12-20T14:52:06.921Z,97530.41
2022-12-20T14:57:44.437Z,97545.88
2022-12-20T15:00:15.161Z,97550.66
2022-12-20T15:02:55.047Z,97545.91
2022-12-20T15:05:35.509Z,97555.31
2022-12-20T15:08:27.548Z,97556.91
2022-12-20T15:10:55.359Z,97555.22
2022-12-20T15:13:28.228Z,97563.09
2022-12-20T15:15:58.386Z,97564.03
2022-12-20T15:18:26.114Z,97561.97
2022-12-20T15:21:12.869Z,97563.75
2022-12-20T15:23:49.965Z,97562.19
2022-12-20T15:26:26.800Z,97564.31
2022-12-20T15:28:55.398Z,97557.94
2022-12-20T15:31:32.602Z,97567.69
2022-12-20T15:34:08.459Z,97558.22
2022-12-20T15:36:36.098Z,97568.00
2022-12-20T15:39:13.642Z,97550.97
2022-12-20T15:41:49.996Z,97533.34
2022-12-20T15:44:21.257Z,97547.47
2022-12-20T15:46:50.094Z,97545.09
2022-12-20T15:49:23.774Z,97548.78
2022-12-20T15:51:53.162Z,97543.50
2022-12-20T15:54:36.056Z,97555.84
2022-12-20T15:57:10.148Z,97536.41
2022-12-20T16:02:28.489Z,97541.47
2022-12-20T16:04:57.960Z,97522.84
2022-12-20T16:07:26.139Z,97545.19
2022-12-20T16:09:54.654Z,97536.25
2022-12-20T16:12:36.341Z,97532.78
2022-12-20T16:15:04.339Z,97530.63
2022-12-20T16:17:32.294Z,97536.94
2022-12-20T16:20:00.304Z,97526.94
2022-12-20T16:22:28.206Z,97541.94
2022-12-20T16:24:56.224Z,97514.28
2022-12-20T16:27:23.870Z,97511.59
2022-12-20T16:29:51.464Z,97522.09
2022-12-20T16:32:22.101Z,97513.91
2022-12-20T16:34:51.255Z,97527.09
2022-12-20T16:37:19.137Z,97520.97
2022-12-20T16:39:47.814Z,97517.81
2022-12-20T16:42:18.318Z,97519.41
2022-12-20T16:44:46.435Z,97505.97
2022-12-20T16:47:16.554Z,97510.94
2022-12-20T16:49:53.288Z,97512.28
2022-12-20T16:52:28.231Z,97492.50
2022-12-20T16:54:56.572Z,97500.91
2022-12-20T16:57:24.166Z,97511.69
2022-12-20T16:59:55.730Z,97486.69
2022-12-20T17:02:29.637Z,97499.50
2022-12-20T17:04:58.076Z,97499.81
2022-12-20T17:07:26.113Z,97497.69
2022-12-20T17:10:12.841Z,97505.25
2022-12-20T17:12:40.618Z,97498.63
2022-12-20T17:15:18.037Z,97501.72
2022-12-20T17:17:46.155Z,97496.38
2022-12-20T17:20:15.138Z,97485.56
2022-12-20T17:25:33.335Z,97491.91
2022-12-20T17:28:01.044Z,97505.84
2022-12-20T17:30:28.788Z,97496.56
2022-12-20T17:32:56.357Z,97501.06
2022-12-20T17:35:32.960Z,97500.59
2022-12-20T17:38:02.176Z,97491.41
2022-12-20T17:40:29.990Z,97484.81
2022-12-20T17:42:57.643Z,97490.56
2022-12-20T17:45:36.526Z,97500.47
2022-12-20T17:48:05.512Z,97490.25
2022-12-20T17:50:33.254Z,97491.78
2022-12-20T17:53:01.485Z,97455.78
2022-12-20T17:55:29.446Z,97492.50
2022-12-20T17:57:57.228Z,97462.81
2022-12-20T18:00:34.585Z,97488.75
2022-12-20T18:03:04.542Z,97481.09
2022-12-20T18:05:32.344Z,97480.81
2022-12-20T18:08:00.065Z,97476.28
2022-12-20T18:10:27.802Z,97482.84
2022-12-20T18:12:55.499Z,97477.28
2022-12-20T18:15:23.298Z,97473.66
2022-12-20T18:17:51.190Z,97489.06
2022-12-20T18:20:18.892Z,97471.25
2022-12-20T18:22:46.613Z,97458.19
2022-12-20T18:25:14.322Z,97479.84
2022-12-20T18:27:43.273Z,97478.47
2022-12-20T18:30:13.187Z,97477.56
2022-12-20T18:32:41.577Z,97480.72
2022-12-20T18:35:10.192Z,97481.41
2022-12-20T18:37:38.021Z,97455.41
2022-12-20T18:40:06.392Z,97478.19
2022-12-20T18:42:36.248Z,97466.78
2022-12-20T18:45:04.303Z,97468.09
2022-12-20T18:47:35.620Z,97473.63
2022-12-20T18:50:03.404Z,97474.13
2022-12-20T18:52:31.981Z,97454.59
2022-12-20T18:54:59.730Z,97456.00
2022-12-20T18:57:27.627Z,97453.38
2022-12-20T18:59:55.353Z,97453.97
2022-12-20T19:02:23.134Z,97455.59
2022-12-20T19:04:50.935Z,97452.84
2022-12-20T19:07:18.633Z,97440.88
2022-12-20T19:09:46.167Z,97446.44
2022-12-20T19:12:13.836Z,97452.41
2022-12-20T19:14:41.597Z,97455.81
2022-12-20T19:17:09.440Z,97442.91
2022-12-20T19:19:37.148Z,97450.31
2022-12-20T19:22:04.928Z,97446.13
2022-12-20T19:24:32.616Z,97444.53
2022-12-20T19:27:00.316Z,97439.81
2022-12-20T19:29:27.937Z,97443.19
2022-12-20T19:31:55.820Z,97435.56
2022-12-20T19:34:23.533Z,97437.34
2022-12-20T19:36:52.201Z,97431.56
2022-12-20T19:39:23.714Z,97433.97
2022-12-20T19:42:22.191Z,97432.69
2022-12-20T19:44:40.033Z,97434.31
2022-12-20T19:47:07.887Z,97420.13
2022-12-20T19:49:38.154Z,97433.19
2022-12-20T19:52:07.154Z,97439.50
2022-12-20T19:54:35.649Z,97431.16
2022-12-20T19:57:03.362Z,97436.44
2022-12-20T19:59:31.132Z,97441.41
2022-12-20T20:01:59.030Z,97437.41
2022-12-20T20:04:32.559Z,97441.59
2022-12-20T20:07:00.272Z,97432.97
2022-12-20T20:09:30.027Z,97444.00
2022-12-20T20:11:58.228Z,97444.88
2022-12-20T20:14:26.019Z,97416.25
2022-12-20T20:16:53.743Z,97412.63
2022-12-20T20:19:21.404Z,97409.44
2022-12-20T20:22:26.796Z,97429.53
2022-12-20T20:24:54.521Z,97397.19
2022-12-20T20:27:22.113Z,97403.69
2022-12-20T20:29:50.575Z,97418.88
2022-12-20T20:32:18.201Z,97423.38
2022-12-20T20:34:45.910Z,97392.91
2022-12-20T20:37:13.675Z,97402.88
2022-12-20T20:39:41.733Z,97417.81
2022-12-20T20:42:09.497Z,97413.44
2022-12-20T20:44:37.204Z,97430.00
2022-12-20T20:47:05.889Z,97426.13
2022-12-20T20:49:33.875Z,97429.13
2022-12-20T20:52:01.695Z,97433.16
2022-12-20T20:54:29.397Z,97406.22
2022-12-20T20:56:57.181Z,97427.31
2022-12-20T20:59:25.268Z,97425.47
2022-12-20T21:01:53.877Z,97420.78
2022-12-20T21:04:21.804Z,97425.00
2022-12-20T21:06:49.560Z,97438.66
2022-12-20T21:09:17.241Z,97442.09
2022-12-20T21:11:45.224Z,97431.03
2022-12-20T21:14:13.218Z,97421.88
2022-12-20T21:16:41.815Z,97424.44
2022-12-20T21:19:10.722Z,97423.66
2022-12-20T21:21:38.393Z,97433.19
2022-12-20T21:24:06.580Z,97415.84
2022-12-20T21:26:34.343Z,97414.75
2022-12-20T21:29:02.159Z,97426.13
2022-12-20T21:31:31.173Z,97424.91
2022-12-20T21:33:59.125Z,97430.50
2022-12-20T21:36:27.071Z,97422.34
2022-12-20T21:38:58.892Z,97428.66
2022-12-20T21:41:29.203Z,97414.69
2022-12-20T21:43:58.678Z,97416.53
2022-12-20T21:46:28.647Z,97421.28
2022-12-20T21:48:56.486Z,97428.00
2022-12-20T21:51:26.303Z,97423.84
2022-12-20T21:53:57.155Z,97427.84
2022-12-20T21:56:27.201Z,97392.69
2022-12-20T21:58:55.657Z,97395.09
2022-12-20T22:01:26.058Z,97402.47
2022-12-20T22:03:57.196Z,97389.38
2022-12-20T22:06:25.899Z,97430.06
2022-12-20T22:08:53.669Z,97411.38
2022-12-20T22:11:21.331Z,97435.81
2022-12-20T22:13:49.521Z,97415.81
2022-12-20T22:16:21.534Z,97371.72
2022-12-20T22:18:51.030Z,97394.22
2022-12-20T22:21:20.916Z,97423.38
2022-12-20T22:23:49.357Z,97420.50
2022-12-20T22:26:22.150Z,97415.31
2022-12-20T22:28:52.585Z,97412.97
2022-12-20T22:31:21.917Z,97400.13
2022-12-20T22:33:49.806Z,97405.34
2022-12-20T22:36:17.806Z,97423.22
2022-12-20T22:38:45.570Z,97415.38
2022-12-20T22:41:19.297Z,97405.94
2022-12-20T22:43:47.738Z,97415.66
2022-12-20T22:46:17.065Z,97426.72
2022-12-20T22:48:46.108Z,97408.38
2022-12-20T22:51:22.061Z,97391.53
2022-12-20T22:53:50.264Z,97407.28
2022-12-20T22:56:19.948Z,97409.09
2022-12-20T22:58:48.207Z,97403.88
2022-12-20T23:01:17.793Z,97407.03
2022-12-20T23:03:46.258Z,97416.25
2022-12-20T23:06:16.835Z,97413.88
2022-12-20T23:08:44.831Z,97417.03
2022-12-20T23:11:40.443Z,97401.03
2022-12-20T23:14:35.571Z,97404.16
2022-12-20T23:17:04.298Z,97398.38
2022-12-20T23:19:50.789Z,97405.50
2022-12-20T23:22:37.340Z,97404.97
2022-12-20T23:25:13.767Z,97401.00
2022-12-20T23:27:47.520Z,97396.53
2022-12-20T23:30:22.488Z,97360.31
2022-12-20T23:32:51.934Z,97393.13
2022-12-20T23:35:28.533Z,97371.06
2022-12-20T23:37:59.931Z,97403.13
2022-12-20T23:40:36.684Z,97394.97
2022-12-20T23:43:16.411Z,97385.25
2022-12-20T23:45:45.836Z,97387.63
2022-12-20T23:48:14.006Z,97376.59
2022-12-20T23:50:45.788Z,97384.47
2022-12-20T23:53:19.667Z,97385.53
2022-12-20T23:59:06.072Z,97405.72
